createdAt,value
2023-04-16T00:01:57.303Z,3.22
2023-04-16T00:04:24.439Z,3.10
2023-04-16T00:06:52.369Z,3.30
2023-04-16T00:09:19.345Z,2.95
2023-04-16T00:11:46.256Z,2.92
2023-04-16T00:14:14.027Z,3.15
2023-04-16T00:16:40.969Z,3.63
2023-04-16T00:19:08.960Z,3.00
2023-04-16T00:21:36.722Z,2.90
2023-04-16T00:24:03.827Z,2.85
2023-04-16T00:26:30.962Z,2.90
2023-04-16T00:28:58.379Z,3.00
2023-04-16T00:31:33.262Z,3.00
2023-04-16T00:34:00.563Z,2.60
2023-04-16T00:36:27.983Z,2.70
2023-04-16T00:38:55.205Z,2.95
2023-04-16T00:41:22.212Z,3.13
2023-04-16T00:43:49.936Z,3.47
2023-04-16T00:46:17.722Z,3.05
2023-04-16T00:48:45.199Z,3.10
2023-04-16T00:51:12.119Z,3.42
2023-04-16T00:53:39.832Z,2.78
2023-04-16T00:56:07.491Z,2.78
2023-04-16T00:58:35.126Z,2.83
2023-04-16T01:01:02.293Z,3.13
2023-04-16T01:03:47.428Z,2.80
2023-04-16T01:06:15.306Z,2.90
2023-04-16T01:08:42.155Z,3.30
2023-04-16T01:11:10.346Z,3.40
2023-04-16T01:13:37.264Z,3.10
2023-04-16T01:16:04.581Z,2.80
2023-04-16T01:18:31.452Z,3.05
2023-04-16T01:20:58.419Z,3.28
2023-04-16T01:23:25.293Z,3.15
2023-04-16T01:25:52.215Z,2.90
2023-04-16T01:28:19.127Z,3.28
2023-04-16T01:30:46.035Z,3.28
2023-04-16T01:33:13.465Z,3.17
2023-04-16T01:35:40.727Z,2.85
2023-04-16T01:38:08.483Z,3.80
2023-04-16T01:40:36.182Z,3.58
2023-04-16T01:43:03.370Z,3.10
2023-04-16T01:45:32.275Z,3.33
2023-04-16T01:47:59.207Z,3.47
2023-04-16T01:50:26.118Z,3.40
2023-04-16T01:52:53.029Z,2.80
2023-04-16T01:55:19.964Z,2.47
2023-04-16T01:57:46.815Z,3.35
2023-04-16T02:00:13.774Z,3.15
2023-04-16T02:02:40.792Z,3.15
2023-04-16T02:05:08.050Z,2.85
2023-04-16T02:07:34.914Z,3.05
2023-04-16T02:10:01.873Z,3.22
2023-04-16T02:12:28.771Z,3.00
2023-04-16T02:14:55.670Z,2.90
2023-04-16T02:17:22.632Z,3.38
2023-04-16T02:19:49.596Z,3.08
2023-04-16T02:22:16.517Z,3.22
2023-04-16T02:24:43.376Z,4.00
2023-04-16T02:27:10.262Z,3.88
2023-04-16T02:29:37.111Z,4.00
2023-04-16T02:32:04.293Z,3.55
2023-04-16T02:34:31.218Z,4.22
2023-04-16T02:36:58.093Z,3.92
2023-04-16T02:39:24.974Z,3.22
2023-04-16T02:41:51.884Z,3.47
2023-04-16T02:44:20.697Z,3.38
2023-04-16T02:46:47.553Z,3.30
2023-04-16T02:49:14.413Z,4.03
2023-04-16T02:51:41.334Z,3.70
2023-04-16T02:54:08.297Z,3.25
2023-04-16T02:56:35.172Z,3.13
2023-04-16T02:59:02.115Z,3.38
2023-04-16T03:01:29.179Z,3.17
2023-04-16T03:03:56.163Z,2.90
2023-04-16T03:06:23.127Z,3.70
2023-04-16T03:08:50.021Z,3.35
2023-04-16T03:11:16.981Z,3.35
2023-04-16T03:13:44.274Z,2.92
2023-04-16T03:16:11.268Z,3.20
2023-04-16T03:18:38.184Z,4.00
2023-04-16T03:21:05.480Z,3.50
2023-04-16T03:23:32.457Z,3.63
2023-04-16T03:25:59.371Z,3.88
2023-04-16T03:28:26.289Z,3.97
2023-04-16T03:30:53.627Z,3.58
2023-04-16T03:33:20.820Z,3.15
2023-04-16T03:35:47.740Z,3.20
2023-04-16T03:38:14.646Z,3.40
2023-04-16T03:40:41.569Z,3.45
2023-04-16T03:43:08.472Z,3.13
2023-04-16T03:45:35.312Z,3.40
2023-04-16T03:48:02.222Z,3.80
2023-04-16T03:50:29.115Z,2.90
2023-04-16T03:52:56.001Z,3.30
2023-04-16T03:55:22.864Z,3.30
2023-04-16T03:57:49.761Z,3.55
2023-04-16T04:00:16.743Z,3.80
2023-04-16T04:02:43.840Z,3.70
2023-04-16T04:05:10.961Z,3.75
2023-04-16T04:07:37.833Z,3.60
2023-04-16T04:10:05.227Z,3.30
2023-04-16T04:12:32.361Z,3.13
2023-04-16T04:14:59.229Z,3.22
2023-04-16T04:17:26.141Z,3.08
2023-04-16T04:20:00.899Z,3.30
2023-04-16T04:22:28.701Z,3.40
2023-04-16T04:24:55.591Z,3.22
2023-04-16T04:27:22.514Z,2.88
2023-04-16T04:29:49.378Z,3.20
2023-04-16T04:32:16.317Z,3.53
2023-04-16T04:34:43.230Z,3.65
2023-04-16T04:37:10.116Z,3.20
2023-04-16T04:39:37.053Z,3.38
2023-04-16T04:42:04.011Z,3.38
2023-04-16T04:44:30.894Z,3.20
2023-04-16T04:46:57.856Z,3.45
2023-04-16T04:49:24.795Z,3.38
2023-04-16T04:51:51.664Z,3.17
2023-04-16T04:54:18.539Z,3.63
2023-04-16T04:56:45.451Z,3.58
2023-04-16T04:59:12.475Z,3.13
2023-04-16T05:01:39.546Z,3.53
2023-04-16T05:04:06.591Z,3.47
2023-04-16T05:06:33.547Z,3.33
2023-04-16T05:09:00.467Z,3.70
2023-04-16T05:11:27.428Z,3.30
2023-04-16T05:13:54.305Z,3.80
2023-04-16T05:16:21.233Z,3.30
2023-04-16T05:18:48.151Z,4.00
2023-04-16T05:21:15.034Z,3.00
2023-04-16T05:23:41.867Z,3.78
2023-04-16T05:26:08.759Z,3.47
2023-04-16T05:28:35.726Z,3.60
2023-04-16T05:31:02.773Z,3.97
2023-04-16T05:33:29.708Z,4.10
2023-04-16T05:35:56.653Z,3.92
2023-04-16T05:38:23.580Z,3.85
2023-04-16T05:40:50.472Z,4.32
2023-04-16T05:43:17.599Z,4.15
2023-04-16T05:45:44.450Z,3.97
2023-04-16T05:48:13.839Z,4.00
2023-04-16T05:51:17.273Z,4.50
2023-04-16T05:53:44.208Z,4.93
2023-04-16T05:56:11.094Z,4.85
2023-04-16T05:58:40.389Z,4.30
2023-04-16T06:01:07.290Z,4.28
2023-04-16T06:03:34.255Z,5.05
2023-04-16T06:06:01.616Z,4.90
2023-04-16T06:08:28.511Z,5.00
2023-04-16T06:10:55.398Z,4.45
2023-04-16T06:13:22.338Z,4.43
2023-04-16T06:15:49.263Z,4.00
2023-04-16T06:18:16.271Z,3.78
2023-04-16T06:20:43.210Z,4.75
2023-04-16T06:23:10.163Z,4.00
2023-04-16T06:25:37.065Z,4.20
2023-04-16T06:28:04.037Z,3.70
2023-04-16T06:30:30.966Z,4.05
2023-04-16T06:32:57.898Z,3.70
2023-04-16T06:35:24.814Z,3.35
2023-04-16T06:37:51.688Z,3.35
2023-04-16T06:40:18.554Z,3.05
2023-04-16T06:42:45.763Z,3.35
2023-04-16T06:45:13.546Z,4.05
2023-04-16T06:47:40.522Z,3.35
2023-04-16T06:50:07.931Z,3.33
2023-04-16T06:52:34.841Z,3.22
2023-04-16T06:55:02.292Z,3.22
2023-04-16T06:57:29.223Z,2.92
2023-04-16T06:59:56.099Z,3.10
2023-04-16T07:02:24.018Z,2.72
2023-04-16T07:04:51.045Z,2.85
2023-04-16T07:07:18.384Z,3.13
2023-04-16T07:09:45.338Z,3.40
2023-04-16T07:12:12.246Z,3.20
2023-04-16T07:14:39.243Z,2.60
2023-04-16T07:17:06.144Z,3.33
2023-04-16T07:19:33.053Z,3.20
2023-04-16T07:22:00.368Z,3.38
2023-04-16T07:24:27.390Z,2.90
2023-04-16T07:26:54.288Z,3.20
2023-04-16T07:29:21.287Z,2.88
2023-04-16T07:31:48.348Z,3.50
2023-04-16T07:34:15.275Z,3.47
2023-04-16T07:36:42.144Z,3.40
2023-04-16T07:39:09.213Z,3.63
2023-04-16T07:41:36.313Z,3.70
2023-04-16T07:44:06.199Z,4.03
2023-04-16T07:46:43.640Z,4.07
2023-04-16T07:49:13.645Z,3.35
2023-04-16T07:51:40.600Z,3.70
2023-04-16T07:54:07.521Z,4.00
2023-04-16T07:56:34.459Z,4.10
2023-04-16T07:59:11.053Z,4.53
2023-04-16T08:01:45.953Z,4.43
2023-04-16T08:04:13.095Z,3.38
2023-04-16T08:06:40.216Z,4.32
2023-04-16T08:09:07.260Z,4.18
2023-04-16T08:11:34.303Z,4.15
2023-04-16T08:14:01.222Z,4.97
2023-04-16T08:16:28.257Z,4.35
2023-04-16T08:18:55.236Z,3.80
2023-04-16T08:21:22.310Z,3.92
2023-04-16T08:23:49.248Z,5.75
2023-04-16T08:26:16.127Z,5.63
2023-04-16T08:28:43.007Z,5.93
2023-04-16T08:31:09.944Z,6.95
2023-04-16T08:33:36.866Z,7.10
2023-04-16T08:36:10.604Z,7.22
2023-04-16T08:38:37.499Z,8.82
2023-04-16T08:41:06.466Z,8.65
2023-04-16T08:43:34.222Z,8.27
2023-04-16T08:46:01.278Z,7.63
2023-04-16T08:48:32.557Z,7.30
2023-04-16T08:51:00.072Z,7.07
2023-04-16T08:53:48.513Z,6.07
2023-04-16T08:56:15.395Z,6.20
2023-04-16T08:58:42.245Z,7.50
2023-04-16T09:01:10.104Z,6.55
2023-04-16T09:03:37.121Z,6.07
2023-04-16T09:06:04.375Z,5.90
2023-04-16T09:08:31.602Z,6.13
2023-04-16T09:10:58.530Z,5.45
2023-04-16T09:13:25.764Z,5.30
2023-04-16T09:15:53.975Z,4.97
2023-04-16T09:18:20.927Z,5.55
2023-04-16T09:20:51.142Z,4.97
2023-04-16T09:23:18.399Z,4.72
2023-04-16T09:25:45.297Z,4.25
2023-04-16T09:28:12.145Z,4.03
2023-04-16T09:30:39.062Z,2.55
2023-04-16T09:33:19.647Z,3.80
2023-04-16T09:35:47.991Z,4.53
2023-04-16T09:38:15.042Z,4.93
2023-04-16T09:40:41.899Z,4.93
2023-04-16T09:43:16.445Z,4.70
2023-04-16T09:45:53.989Z,4.75
2023-04-16T09:48:31.310Z,5.00
2023-04-16T09:50:59.118Z,4.25
2023-04-16T09:53:30.497Z,4.22
2023-04-16T09:56:11.322Z,5.22
2023-04-16T09:58:38.314Z,5.13
2023-04-16T10:01:13.355Z,5.18
2023-04-16T10:03:40.878Z,4.45
2023-04-16T10:06:18.700Z,4.60
2023-04-16T10:08:53.643Z,4.82
2023-04-16T10:11:21.036Z,5.53
2023-04-16T10:13:47.963Z,4.82
2023-04-16T10:16:14.904Z,4.63
2023-04-16T10:18:43.422Z,4.68
2023-04-16T10:21:10.314Z,3.88
2023-04-16T10:23:37.190Z,4.28
2023-04-16T10:26:04.170Z,3.92
2023-04-16T10:28:31.142Z,3.42
2023-04-16T10:30:58.409Z,3.72
2023-04-16T10:33:36.153Z,16.20
2023-04-16T10:36:10.988Z,5.20
2023-04-16T10:38:42.187Z,3.40
2023-04-16T10:41:09.162Z,4.20
2023-04-16T10:43:42.929Z,10.63
2023-04-16T10:46:33.406Z,6.82
2023-04-16T10:49:01.935Z,4.07
2023-04-16T10:51:34.197Z,3.70
2023-04-16T10:54:20.163Z,3.42
2023-04-16T10:56:47.421Z,3.28
2023-04-16T10:59:18.321Z,3.70
2023-04-16T11:01:55.841Z,3.05
2023-04-16T11:04:27.003Z,2.30
2023-04-16T11:07:12.372Z,2.80
2023-04-16T11:09:58.390Z,2.53
2023-04-16T11:12:40.985Z,2.75
2023-04-16T11:15:09.928Z,2.70
2023-04-16T11:17:47.298Z,3.85
2023-04-16T11:20:24.765Z,3.40
2023-04-16T11:22:53.015Z,2.47
2023-04-16T11:25:27.791Z,3.40
2023-04-16T11:27:54.820Z,3.10
2023-04-16T11:30:36.691Z,3.40
2023-04-16T11:33:09.438Z,2.40
2023-04-16T11:35:36.391Z,3.08
2023-04-16T11:38:03.336Z,3.65
2023-04-16T11:40:30.559Z,3.28
2023-04-16T11:43:13.179Z,2.30
2023-04-16T11:45:54.081Z,2.58
2023-04-16T11:48:20.993Z,2.28
2023-04-16T11:50:56.275Z,2.10
2023-04-16T11:53:23.139Z,2.47
2023-04-16T11:55:50.117Z,2.17
2023-04-16T11:58:17.071Z,1.88
2023-04-16T12:00:44.637Z,2.20
2023-04-16T12:03:11.813Z,2.45
2023-04-16T12:05:40.206Z,2.70
2023-04-16T12:08:11.594Z,1.92
2023-04-16T12:10:53.517Z,1.90
2023-04-16T12:13:20.451Z,1.85
2023-04-16T12:15:56.788Z,1.55
2023-04-16T12:18:25.122Z,1.50
2023-04-16T12:20:52.050Z,2.00
2023-04-16T12:23:29.646Z,1.90
2023-04-16T12:25:57.328Z,1.35
2023-04-16T12:28:34.982Z,1.60
2023-04-16T12:31:02.616Z,1.70
2023-04-16T12:33:29.674Z,1.40
2023-04-16T12:35:56.958Z,1.25
2023-04-16T12:38:24.741Z,1.33
2023-04-16T12:40:52.139Z,1.50
2023-04-16T12:43:19.063Z,1.30
2023-04-16T12:45:45.981Z,1.08
2023-04-16T12:48:12.972Z,1.13
2023-04-16T12:50:39.947Z,1.10
2023-04-16T12:53:06.866Z,1.30
2023-04-16T12:55:33.802Z,1.60
2023-04-16T12:58:00.665Z,1.75
2023-04-16T13:00:27.583Z,1.42
2023-04-16T13:02:54.638Z,1.50
2023-04-16T13:05:21.729Z,2.05
2023-04-16T13:07:48.618Z,1.42
2023-04-16T13:10:15.527Z,1.40
2023-04-16T13:12:42.439Z,1.65
2023-04-16T13:15:10.193Z,1.35
2023-04-16T13:17:37.090Z,1.83
2023-04-16T13:20:04.429Z,1.33
2023-04-16T13:22:31.346Z,1.40
2023-04-16T13:24:58.200Z,1.60
2023-04-16T13:27:25.227Z,1.40
2023-04-16T13:29:52.115Z,1.50
2023-04-16T13:32:19.023Z,1.58
2023-04-16T13:34:45.921Z,1.60
2023-04-16T13:37:13.036Z,1.70
2023-04-16T13:39:39.972Z,1.55
2023-04-16T13:42:06.891Z,1.15
2023-04-16T13:44:33.828Z,1.38
2023-04-16T13:47:00.833Z,1.40
2023-04-16T13:49:27.732Z,1.30
2023-04-16T13:51:54.608Z,1.80
2023-04-16T13:54:21.552Z,2.15
2023-04-16T13:56:50.111Z,1.80
2023-04-16T13:59:17.026Z,1.70
2023-04-16T14:01:43.970Z,1.60
2023-04-16T14:04:10.960Z,1.63
2023-04-16T14:06:37.848Z,1.67
2023-04-16T14:09:04.743Z,1.52
2023-04-16T14:11:31.950Z,1.17
2023-04-16T14:13:58.888Z,1.85
2023-04-16T14:16:26.470Z,1.80
2023-04-16T14:18:53.543Z,1.45
2023-04-16T14:21:20.502Z,1.30
2023-04-16T14:23:47.378Z,1.67
2023-04-16T14:26:14.531Z,1.80
2023-04-16T14:28:41.730Z,1.90
2023-04-16T14:31:08.698Z,1.77
2023-04-16T14:33:35.619Z,1.70
2023-04-16T14:36:03.382Z,1.35
2023-04-16T14:38:30.823Z,1.42
2023-04-16T14:40:57.724Z,1.50
2023-04-16T14:43:24.639Z,1.52
2023-04-16T14:45:51.652Z,1.50
2023-04-16T14:48:18.883Z,1.50
2023-04-16T14:50:45.939Z,1.50
2023-04-16T14:53:12.795Z,1.48
2023-04-16T14:55:39.705Z,2.47
2023-04-16T14:58:06.618Z,2.13
2023-04-16T15:00:34.930Z,1.55
2023-04-16T15:03:02.047Z,1.70
2023-04-16T15:05:30.232Z,1.90
2023-04-16T15:07:57.284Z,1.30
2023-04-16T15:10:24.188Z,1.48
2023-04-16T15:12:51.146Z,1.58
2023-04-16T15:15:18.065Z,1.63
2023-04-16T15:17:45.040Z,1.40
2023-04-16T15:20:12.774Z,1.50
2023-04-16T15:22:40.319Z,1.42
2023-04-16T15:25:07.907Z,1.55
2023-04-16T15:27:34.789Z,1.95
2023-04-16T15:30:01.908Z,1.50
2023-04-16T15:32:28.965Z,1.35
2023-04-16T15:34:55.889Z,1.52
2023-04-16T15:37:22.833Z,1.50
2023-04-16T15:39:49.786Z,1.48
2023-04-16T15:42:16.833Z,1.52
2023-04-16T15:44:43.736Z,1.17
2023-04-16T15:47:10.613Z,1.30
2023-04-16T15:49:37.498Z,1.42
2023-04-16T15:52:04.717Z,1.30
2023-04-16T15:54:31.833Z,1.85
2023-04-16T15:56:59.096Z,1.23
2023-04-16T15:59:29.172Z,1.40
2023-04-16T16:01:56.110Z,1.52
2023-04-16T16:04:23.411Z,1.30
2023-04-16T16:06:50.877Z,1.70
2023-04-16T16:09:17.875Z,2.10
2023-04-16T16:11:44.784Z,1.60
2023-04-16T16:14:11.717Z,1.90
2023-04-16T16:16:38.929Z,1.42
2023-04-16T16:19:05.942Z,1.50
2023-04-16T16:21:32.888Z,1.50
2023-04-16T16:23:59.861Z,1.70
2023-04-16T16:26:26.773Z,1.42
2023-04-16T16:28:53.678Z,1.50
2023-04-16T16:31:20.667Z,1.20
2023-04-16T16:33:48.292Z,1.25
2023-04-16T16:36:15.252Z,1.52
2023-04-16T16:38:42.197Z,1.45
2023-04-16T16:41:09.197Z,1.20
2023-04-16T16:43:36.203Z,1.02
2023-04-16T16:46:03.191Z,1.60
2023-04-16T16:48:30.113Z,1.60
2023-04-16T16:50:57.054Z,1.45
2023-04-16T16:53:23.989Z,1.30
2023-04-16T16:55:50.896Z,1.52
2023-04-16T16:58:17.838Z,0.90
2023-04-16T17:00:44.827Z,1.02
2023-04-16T17:03:11.912Z,1.00
2023-04-16T17:08:17.427Z,0.70
2023-04-16T17:10:44.471Z,0.98
2023-04-16T17:13:11.368Z,0.90
2023-04-16T17:15:38.280Z,0.95
2023-04-16T17:18:05.390Z,1.17
2023-04-16T17:20:32.450Z,1.42
2023-04-16T17:22:59.375Z,1.50
2023-04-16T17:25:26.324Z,1.83
2023-04-16T17:27:53.250Z,1.60
2023-04-16T17:30:20.228Z,1.92
2023-04-16T17:32:47.113Z,1.88
2023-04-16T17:35:14.078Z,2.00
2023-04-16T17:37:41.055Z,1.88
2023-04-16T17:40:08.722Z,1.98
2023-04-16T17:42:36.348Z,1.80
2023-04-16T17:45:03.772Z,1.88
2023-04-16T17:47:30.680Z,1.70
2023-04-16T17:49:57.632Z,2.25
2023-04-16T17:52:24.568Z,2.22
2023-04-16T17:54:51.469Z,2.20
2023-04-16T17:57:18.418Z,1.83
2023-04-16T17:59:45.336Z,2.17
2023-04-16T18:02:12.251Z,2.72
2023-04-16T18:04:39.275Z,2.20
2023-04-16T18:07:06.245Z,2.80
2023-04-16T18:09:33.164Z,2.58
2023-04-16T18:12:00.125Z,2.30
2023-04-16T18:14:26.990Z,3.25
2023-04-16T18:16:53.855Z,3.90
2023-04-16T18:19:20.832Z,3.90
2023-04-16T18:21:47.761Z,5.22
2023-04-16T18:24:14.869Z,4.30
2023-04-16T18:26:41.824Z,4.22
2023-04-16T18:29:09.259Z,5.43
2023-04-16T18:31:36.295Z,5.30
2023-04-16T18:34:03.257Z,6.10
2023-04-16T18:36:30.247Z,8.27
2023-04-16T18:39:02.279Z,13.55
2023-04-16T18:41:30.045Z,10.20
2023-04-16T18:43:57.017Z,4.70
2023-04-16T18:46:23.986Z,2.70
2023-04-16T18:48:50.977Z,2.10
2023-04-16T18:51:17.857Z,2.00
2023-04-16T18:53:44.914Z,1.63
2023-04-16T18:56:11.886Z,1.20
2023-04-16T18:58:38.842Z,1.58
2023-04-16T19:01:05.823Z,2.60
2023-04-16T19:03:32.856Z,4.28
2023-04-16T19:05:59.812Z,7.32
2023-04-16T19:08:26.704Z,8.77
2023-04-16T19:10:53.688Z,8.30
2023-04-16T19:13:20.619Z,6.50
2023-04-16T19:15:47.568Z,6.30
2023-04-16T19:18:14.543Z,5.82
2023-04-16T19:20:41.485Z,6.30
2023-04-16T19:23:08.385Z,7.68
2023-04-16T19:25:35.826Z,7.75
2023-04-16T19:28:03.720Z,4.28
2023-04-16T19:30:30.961Z,3.35
2023-04-16T19:32:58.005Z,3.55
2023-04-16T19:35:25.000Z,3.33
2023-04-16T19:37:52.001Z,2.90
2023-04-16T19:40:19.061Z,3.33
2023-04-16T19:42:45.993Z,4.43
2023-04-16T19:45:12.945Z,9.05
2023-04-16T19:47:39.954Z,8.07
2023-04-16T19:50:07.595Z,8.15
2023-04-16T19:52:34.516Z,6.47
2023-04-16T19:55:01.550Z,5.43
2023-04-16T19:57:28.411Z,4.47
2023-04-16T19:59:55.385Z,3.85
2023-04-16T20:02:22.408Z,3.47
2023-04-16T20:04:49.483Z,3.50
2023-04-16T20:07:16.376Z,3.78
2023-04-16T20:09:43.255Z,3.80
2023-04-16T20:12:10.185Z,4.97
2023-04-16T20:14:37.141Z,4.32
2023-04-16T20:17:04.191Z,4.75
2023-04-16T20:19:31.160Z,4.30
2023-04-16T20:21:58.064Z,4.55
2023-04-16T20:24:25.037Z,5.00
2023-04-16T20:26:51.962Z,5.43
2023-04-16T20:29:18.941Z,6.13
2023-04-16T20:31:45.854Z,5.63
2023-04-16T20:34:12.905Z,5.05
2023-04-16T20:36:39.862Z,4.18
2023-04-16T20:39:06.804Z,3.25
2023-04-16T20:41:33.792Z,3.45
2023-04-16T20:44:00.666Z,3.13
2023-04-16T20:46:27.626Z,3.40
2023-04-16T20:48:54.577Z,3.42
2023-04-16T20:51:21.556Z,2.92
2023-04-16T20:53:48.485Z,2.90
2023-04-16T20:56:15.535Z,2.85
2023-04-16T20:58:42.470Z,3.33
2023-04-16T21:01:09.413Z,3.25
2023-04-16T21:03:36.565Z,2.63
2023-04-16T21:06:03.675Z,2.70
2023-04-16T21:08:30.553Z,2.80
2023-04-16T21:10:57.478Z,4.03
2023-04-16T21:13:24.374Z,3.10
2023-04-16T21:15:51.426Z,4.03
2023-04-16T21:18:18.429Z,2.90
2023-04-16T21:20:45.403Z,3.38
2023-04-16T21:23:12.335Z,3.05
2023-04-16T21:25:39.225Z,3.20
2023-04-16T21:28:06.167Z,2.88
2023-04-16T21:30:33.089Z,2.58
2023-04-16T21:33:00.026Z,2.47
2023-04-16T21:35:26.925Z,2.10
2023-04-16T21:37:53.817Z,2.90
2023-04-16T21:40:20.748Z,2.55
2023-04-16T21:42:47.654Z,2.58
2023-04-16T21:45:14.665Z,2.28
2023-04-16T21:47:41.598Z,3.20
2023-04-16T21:50:09.044Z,4.93
2023-04-16T21:52:35.976Z,5.28
2023-04-16T21:55:02.879Z,4.90
2023-04-16T21:57:29.741Z,4.38
2023-04-16T21:59:56.604Z,4.13
2023-04-16T22:02:23.616Z,3.28
2023-04-16T22:04:50.854Z,3.95
2023-04-16T22:07:17.774Z,4.10
2023-04-16T22:09:44.691Z,3.85
2023-04-16T22:12:11.604Z,3.50
2023-04-16T22:14:43.958Z,3.30
2023-04-16T22:17:13.260Z,3.78
2023-04-16T22:19:40.137Z,3.53
2023-04-16T22:22:06.981Z,3.65
2023-04-16T22:24:33.825Z,3.35
2023-04-16T22:27:00.708Z,3.65
2023-04-16T22:29:27.618Z,3.78
2023-04-16T22:31:54.705Z,3.65
2023-04-16T22:34:21.782Z,3.45
2023-04-16T22:36:48.692Z,3.72
2023-04-16T22:39:15.560Z,4.80
2023-04-16T22:41:42.456Z,4.53
2023-04-16T22:44:09.318Z,4.72
2023-04-16T22:46:36.372Z,4.07
2023-04-16T22:49:03.467Z,3.55
2023-04-16T22:51:30.638Z,3.50
2023-04-16T22:53:57.535Z,2.70
2023-04-16T22:56:24.416Z,2.58
2023-04-16T22:58:51.296Z,2.53
2023-04-16T23:01:18.177Z,2.47
2023-04-16T23:03:45.105Z,2.22
2023-04-16T23:06:12.114Z,2.92
2023-04-16T23:08:39.029Z,2.50
2023-04-16T23:11:05.936Z,2.88
2023-04-16T23:13:32.817Z,2.58
2023-04-16T23:15:59.741Z,3.25
2023-04-16T23:18:26.803Z,2.53
2023-04-16T23:20:53.851Z,2.55
2023-04-16T23:23:20.705Z,2.80
2023-04-16T23:25:47.633Z,2.10
2023-04-16T23:28:14.529Z,1.92
2023-04-16T23:30:41.431Z,2.05
2023-04-16T23:33:08.328Z,2.90
2023-04-16T23:35:35.268Z,2.67
2023-04-16T23:38:02.260Z,3.00
2023-04-16T23:40:29.430Z,2.83
2023-04-16T23:42:56.379Z,2.80
2023-04-16T23:45:23.311Z,3.10
2023-04-16T23:47:50.370Z,2.88
2023-04-16T23:50:17.581Z,2.88
2023-04-16T23:52:44.495Z,2.15
2023-04-16T23:55:11.597Z,1.98
2023-04-16T23:57:38.550Z,1.77
